createdAt,value
2023-04-16T00:01:33.924Z,10.93
2023-04-16T00:04:01.860Z,10.80
2023-04-16T00:06:29.468Z,32.42
2023-04-16T00:08:57.000Z,18.80
2023-04-16T00:11:24.582Z,6.28
2023-04-16T00:13:52.168Z,14.00
2023-04-16T00:16:19.678Z,14.87
2023-04-16T00:18:48.600Z,32.55
2023-04-16T00:21:16.192Z,28.00
2023-04-16T00:23:43.738Z,22.83
2023-04-16T00:26:11.285Z,22.98
2023-04-16T00:28:38.810Z,16.10
2023-04-16T00:31:06.333Z,34.35
2023-04-16T00:33:34.076Z,30.15
2023-04-16T00:36:02.959Z,73.72
2023-04-16T00:38:32.391Z,61.17
2023-04-16T00:40:59.962Z,136.93
2023-04-16T00:43:28.177Z,147.18
2023-04-16T00:45:57.661Z,175.02
2023-04-16T00:48:27.918Z,72.78
2023-04-16T00:50:56.444Z,183.05
2023-04-16T00:53:25.628Z,35.27
2023-04-16T00:55:53.505Z,128.98
2023-04-16T00:58:21.421Z,29.35
2023-04-16T01:00:49.136Z,113.25
2023-04-16T01:03:16.888Z,92.30
2023-04-16T01:05:49.136Z,85.77
2023-04-16T01:08:18.578Z,95.32
2023-04-16T01:10:47.398Z,113.38
2023-04-16T01:13:15.258Z,84.55
2023-04-16T01:15:43.009Z,113.10
2023-04-16T01:18:15.897Z,136.73
2023-04-16T01:20:44.932Z,69.70
2023-04-16T01:23:12.819Z,113.28
2023-04-16T01:25:40.711Z,92.32
2023-04-16T01:28:08.917Z,127.75
2023-04-16T01:30:36.484Z,112.50
2023-04-16T01:33:04.082Z,75.78
2023-04-16T01:35:31.616Z,70.43
2023-04-16T01:38:00.721Z,54.08
2023-04-16T01:40:28.213Z,34.58
2023-04-16T01:42:55.647Z,68.97
2023-04-16T01:45:23.073Z,48.10
2023-04-16T01:47:51.400Z,49.13
2023-04-16T01:50:19.831Z,49.15
2023-04-16T01:52:47.883Z,51.05
2023-04-16T01:55:17.073Z,121.77
2023-04-16T01:57:44.972Z,107.38
2023-04-16T02:00:13.111Z,119.65
2023-04-16T02:02:41.534Z,114.70
2023-04-16T02:05:09.886Z,126.85
2023-04-16T02:07:37.413Z,52.33
2023-04-16T02:10:05.359Z,183.60
2023-04-16T02:12:34.296Z,145.60
2023-04-16T02:15:01.857Z,130.07
2023-04-16T02:17:29.358Z,134.38
2023-04-16T02:19:56.876Z,161.57
2023-04-16T02:22:24.813Z,54.80
2023-04-16T02:24:52.314Z,49.05
2023-04-16T02:27:19.815Z,162.07
2023-04-16T02:29:48.686Z,128.45
2023-04-16T02:32:16.421Z,84.73
2023-04-16T02:34:44.456Z,71.40
2023-04-16T02:37:12.296Z,163.00
2023-04-16T02:39:40.202Z,72.60
2023-04-16T02:42:07.800Z,79.72
2023-04-16T02:44:35.309Z,160.87
2023-04-16T02:47:04.107Z,22.73
2023-04-16T02:49:31.548Z,99.22
2023-04-16T02:51:59.078Z,68.30
2023-04-16T02:54:26.582Z,58.85
2023-04-16T02:56:54.038Z,104.60
2023-04-16T02:59:21.481Z,31.77
2023-04-16T03:01:49.074Z,67.68
2023-04-16T03:04:17.933Z,78.65
2023-04-16T03:06:45.451Z,88.63
2023-04-16T03:09:13.143Z,57.13
2023-04-16T03:11:40.635Z,92.88
2023-04-16T03:14:08.123Z,67.20
2023-04-16T03:16:36.395Z,119.53
2023-04-16T03:19:04.066Z,61.63
2023-04-16T03:21:33.453Z,100.43
2023-04-16T03:24:01.796Z,52.92
2023-04-16T03:26:29.279Z,47.47
2023-04-16T03:28:56.864Z,88.65
2023-04-16T03:31:25.287Z,27.67
2023-04-16T03:33:52.978Z,128.17
2023-04-16T03:36:20.828Z,67.18
2023-04-16T03:38:49.753Z,132.95
2023-04-16T03:41:17.307Z,126.65
2023-04-16T03:43:44.791Z,50.90
2023-04-16T03:46:12.303Z,182.07
2023-04-16T03:48:39.797Z,154.88
2023-04-16T03:51:07.285Z,169.43
2023-04-16T03:53:34.805Z,91.53
2023-04-16T03:56:03.716Z,113.28
2023-04-16T03:58:31.209Z,78.53
2023-04-16T04:00:58.649Z,188.50
2023-04-16T04:03:26.644Z,137.20
2023-04-16T04:05:54.228Z,61.28
2023-04-16T04:08:21.732Z,189.02
2023-04-16T04:10:49.234Z,140.97
2023-04-16T04:13:18.162Z,167.80
2023-04-16T04:15:45.661Z,124.97
2023-04-16T04:18:13.081Z,54.45
2023-04-16T04:20:40.893Z,158.02
2023-04-16T04:23:08.478Z,109.40
2023-04-16T04:25:36.383Z,58.20
2023-04-16T04:28:03.951Z,96.05
2023-04-16T04:30:33.150Z,104.50
2023-04-16T04:33:00.737Z,102.18
2023-04-16T04:35:28.242Z,114.07
2023-04-16T04:37:55.768Z,139.82
2023-04-16T04:40:23.268Z,75.85
2023-04-16T04:42:50.763Z,113.85
2023-04-16T04:45:18.295Z,222.50
2023-04-16T04:47:47.238Z,101.90
2023-04-16T04:50:14.735Z,66.00
2023-04-16T04:52:42.349Z,138.70
2023-04-16T04:55:10.449Z,93.97
2023-04-16T04:57:38.041Z,187.32
2023-04-16T05:00:06.229Z,186.30
2023-04-16T05:02:33.809Z,145.88
2023-04-16T05:05:02.817Z,142.10
2023-04-16T05:07:30.666Z,112.95
2023-04-16T05:09:58.154Z,149.68
2023-04-16T05:12:25.772Z,219.63
2023-04-16T05:14:53.184Z,130.52
2023-04-16T05:17:20.930Z,148.20
2023-04-16T05:19:48.476Z,99.72
2023-04-16T05:22:18.854Z,110.20
2023-04-16T05:24:46.322Z,47.07
2023-04-16T05:27:13.758Z,149.18
2023-04-16T05:29:41.255Z,127.32
2023-04-16T05:32:08.733Z,142.73
2023-04-16T05:34:36.187Z,210.00
2023-04-16T05:37:03.728Z,149.17
2023-04-16T05:39:32.552Z,50.28
2023-04-16T05:42:00.168Z,43.22
2023-04-16T05:44:27.670Z,48.40
2023-04-16T05:46:55.234Z,99.70
2023-04-16T05:49:22.668Z,110.03
2023-04-16T05:51:50.960Z,146.75
2023-04-16T05:54:18.621Z,142.35
2023-04-16T05:56:47.414Z,47.30
2023-04-16T05:59:14.845Z,64.57
2023-04-16T06:01:42.335Z,79.67
2023-04-16T06:04:09.878Z,59.35
2023-04-16T06:06:37.786Z,70.78
2023-04-16T06:09:05.675Z,106.43
2023-04-16T06:11:34.579Z,36.88
2023-04-16T06:14:05.289Z,72.63
2023-04-16T06:16:32.806Z,102.40
2023-04-16T06:19:00.270Z,99.47
2023-04-16T06:21:31.867Z,101.25
2023-04-16T06:23:59.634Z,99.95
2023-04-16T06:26:29.411Z,126.33
2023-04-16T06:28:56.969Z,122.35
2023-04-16T06:31:26.244Z,106.25
2023-04-16T06:33:53.743Z,98.30
2023-04-16T06:36:21.149Z,128.13
2023-04-16T06:38:48.699Z,115.23
2023-04-16T06:41:16.236Z,104.05
2023-04-16T06:43:43.754Z,109.32
2023-04-16T06:46:11.349Z,101.47
2023-04-16T06:48:40.140Z,71.18
2023-04-16T06:51:07.699Z,94.73
2023-04-16T06:53:37.275Z,144.90
2023-04-16T06:56:05.120Z,123.68
2023-04-16T06:58:32.812Z,83.57
2023-04-16T07:01:00.560Z,114.45
2023-04-16T07:03:28.331Z,115.37
2023-04-16T07:05:57.494Z,113.82
2023-04-16T07:08:25.553Z,134.98
2023-04-16T07:10:53.802Z,139.55
2023-04-16T07:13:23.596Z,108.35
2023-04-16T07:15:51.161Z,162.63
2023-04-16T07:18:20.712Z,74.72
2023-04-16T07:20:49.032Z,158.88
2023-04-16T07:23:18.145Z,116.03
2023-04-16T07:25:46.055Z,123.30
2023-04-16T07:28:13.614Z,135.53
2023-04-16T07:30:41.127Z,89.20
2023-04-16T07:33:08.589Z,100.03
2023-04-16T07:35:36.336Z,88.50
2023-04-16T07:38:03.812Z,125.82
2023-04-16T07:40:32.723Z,173.33
2023-04-16T07:43:00.342Z,127.32
2023-04-16T07:45:28.035Z,181.30
2023-04-16T07:47:57.523Z,189.60
2023-04-16T07:50:25.846Z,44.13
2023-04-16T07:52:53.324Z,175.97
2023-04-16T07:55:20.796Z,122.32
2023-04-16T07:57:51.257Z,145.02
2023-04-16T08:00:18.959Z,140.65
2023-04-16T08:02:46.581Z,107.18
2023-04-16T08:05:14.195Z,119.33
2023-04-16T08:07:41.740Z,74.35
2023-04-16T08:10:09.971Z,94.47
2023-04-16T08:12:37.548Z,148.45
2023-04-16T08:15:07.925Z,146.07
2023-04-16T08:17:37.498Z,100.27
2023-04-16T08:20:05.857Z,66.97
2023-04-16T08:22:33.996Z,134.13
2023-04-16T08:25:01.633Z,76.65
2023-04-16T08:27:29.079Z,82.35
2023-04-16T08:29:57.189Z,144.80
2023-04-16T08:32:27.109Z,125.57
2023-04-16T08:34:54.588Z,96.30
2023-04-16T08:37:22.066Z,120.95
2023-04-16T08:39:49.506Z,39.80
2023-04-16T08:42:24.685Z,42.53
2023-04-16T08:44:56.970Z,20.98
2023-04-16T08:47:28.637Z,25.48
2023-04-16T08:49:59.732Z,12.77
2023-04-16T08:52:31.632Z,16.20
2023-04-16T08:55:05.193Z,12.33
2023-04-16T08:57:40.480Z,8.25
2023-04-16T09:00:09.779Z,9.63
2023-04-16T09:02:39.209Z,11.80
2023-04-16T09:05:08.641Z,10.27
2023-04-16T09:07:36.284Z,10.47
2023-04-16T09:10:04.507Z,12.45
2023-04-16T09:12:32.173Z,9.52
2023-04-16T09:15:02.950Z,8.18
2023-04-16T09:17:30.655Z,11.55
2023-04-16T09:19:59.679Z,8.73
2023-04-16T09:22:27.462Z,18.15
2023-04-16T09:24:55.106Z,15.32
2023-04-16T09:27:25.448Z,13.63
2023-04-16T09:29:53.624Z,11.70
2023-04-16T09:32:27.078Z,8.13
2023-04-16T09:34:57.713Z,9.93
2023-04-16T09:37:27.191Z,9.13
2023-04-16T09:39:56.121Z,10.18
2023-04-16T09:42:27.206Z,7.72
2023-04-16T09:44:56.247Z,6.97
2023-04-16T09:47:27.399Z,8.23
2023-04-16T09:49:59.980Z,6.60
2023-04-16T09:52:28.742Z,7.50
2023-04-16T09:54:56.918Z,11.50
2023-04-16T09:57:26.078Z,10.53
2023-04-16T09:59:54.655Z,8.85
2023-04-16T10:02:23.576Z,11.52
2023-04-16T10:04:52.914Z,22.65
2023-04-16T10:07:21.620Z,61.72
2023-04-16T10:09:52.447Z,40.53
2023-04-16T10:12:20.572Z,130.30
2023-04-16T10:14:50.098Z,185.07
2023-04-16T10:17:19.702Z,66.07
2023-04-16T10:19:47.754Z,27.05
2023-04-16T10:22:15.260Z,48.40
2023-04-16T10:24:42.903Z,186.68
2023-04-16T10:27:12.200Z,133.68
2023-04-16T10:29:40.246Z,144.85
2023-04-16T10:32:08.794Z,66.35
2023-04-16T10:34:36.910Z,151.53
2023-04-16T10:37:04.566Z,141.23
2023-04-16T10:39:34.257Z,59.78
2023-04-16T10:42:09.391Z,156.77
2023-04-16T10:44:38.450Z,130.80
2023-04-16T10:47:11.510Z,151.07
2023-04-16T10:49:39.049Z,113.88
2023-04-16T10:52:11.767Z,162.13
2023-04-16T10:54:40.147Z,119.05
2023-04-16T10:57:09.607Z,226.90
2023-04-16T10:59:39.752Z,169.40
2023-04-16T11:02:09.527Z,155.48
2023-04-16T11:04:38.520Z,199.38
2023-04-16T11:07:16.993Z,129.63
2023-04-16T11:10:04.193Z,165.48
2023-04-16T11:12:35.707Z,71.07
2023-04-16T11:15:06.481Z,137.10
2023-04-16T11:17:38.782Z,87.68
2023-04-16T11:20:13.584Z,131.13
2023-04-16T11:22:47.480Z,74.68
2023-04-16T11:25:20.456Z,150.63
2023-04-16T11:27:48.019Z,132.18
2023-04-16T11:30:17.873Z,336.25
2023-04-16T11:32:47.233Z,188.70
2023-04-16T11:35:16.616Z,186.65
2023-04-16T11:37:44.748Z,209.43
2023-04-16T11:40:13.527Z,256.25
2023-04-16T11:42:47.776Z,209.50
2023-04-16T11:45:20.457Z,147.98
2023-04-16T11:47:51.780Z,185.95
2023-04-16T11:50:21.503Z,242.33
2023-04-16T11:52:49.951Z,184.13
2023-04-16T11:55:17.573Z,336.73
2023-04-16T11:57:45.942Z,190.77
2023-04-16T12:00:15.070Z,58.67
2023-04-16T12:02:45.366Z,42.67
2023-04-16T12:05:31.678Z,49.15
2023-04-16T12:08:00.475Z,66.22
2023-04-16T12:10:28.620Z,80.55
2023-04-16T12:13:12.488Z,75.00
2023-04-16T12:15:48.158Z,95.60
2023-04-16T12:18:17.257Z,212.32
2023-04-16T12:20:46.128Z,91.25
2023-04-16T12:23:24.230Z,64.25
2023-04-16T12:25:52.066Z,69.45
2023-04-16T12:28:28.978Z,49.57
2023-04-16T12:30:58.937Z,63.33
2023-04-16T12:33:27.894Z,59.58
2023-04-16T12:35:55.373Z,62.47
2023-04-16T12:38:24.234Z,34.65
2023-04-16T12:40:52.724Z,43.43
2023-04-16T12:43:22.059Z,32.05
2023-04-16T12:45:49.585Z,40.05
2023-04-16T12:48:17.216Z,41.08
2023-04-16T12:50:46.426Z,41.67
2023-04-16T12:53:13.946Z,41.13
2023-04-16T12:55:41.635Z,34.83
2023-04-16T12:58:11.126Z,37.25
2023-04-16T13:00:40.696Z,37.10
2023-04-16T13:03:08.496Z,25.80
2023-04-16T13:05:36.442Z,40.47
2023-04-16T13:08:05.505Z,44.85
2023-04-16T13:10:33.019Z,39.28
2023-04-16T13:13:00.562Z,35.78
2023-04-16T13:15:28.049Z,37.67
2023-04-16T13:17:55.754Z,42.07
2023-04-16T13:20:24.607Z,41.05
2023-04-16T13:22:52.227Z,42.67
2023-04-16T13:25:21.181Z,42.50
2023-04-16T13:27:48.693Z,39.80
2023-04-16T13:30:16.814Z,41.57
2023-04-16T13:32:44.645Z,39.78
2023-04-16T13:35:12.539Z,39.97
2023-04-16T13:37:40.038Z,37.00
2023-04-16T13:40:09.189Z,37.58
2023-04-16T13:42:38.130Z,39.70
2023-04-16T13:45:06.384Z,45.33
2023-04-16T13:47:34.580Z,33.33
2023-04-16T13:50:02.109Z,33.92
2023-04-16T13:52:29.543Z,41.58
2023-04-16T13:54:58.907Z,33.10
2023-04-16T13:57:27.503Z,25.88
2023-04-16T13:59:56.627Z,33.85
2023-04-16T14:02:25.913Z,34.22
2023-04-16T14:04:53.812Z,40.95
2023-04-16T14:07:25.550Z,27.47
2023-04-16T14:09:53.287Z,33.63
2023-04-16T14:12:21.136Z,36.70
2023-04-16T14:14:48.643Z,34.65
2023-04-16T14:17:17.435Z,32.10
2023-04-16T14:19:44.906Z,36.53
2023-04-16T14:22:12.358Z,34.30
2023-04-16T14:24:39.806Z,35.00
2023-04-16T14:27:07.237Z,34.55
2023-04-16T14:29:34.708Z,29.17
2023-04-16T14:32:02.191Z,36.30
2023-04-16T14:34:31.026Z,35.05
2023-04-16T14:36:58.550Z,32.38
2023-04-16T14:39:26.008Z,30.60
2023-04-16T14:41:53.564Z,32.65
2023-04-16T14:44:21.539Z,35.27
2023-04-16T14:46:49.009Z,30.08
2023-04-16T14:49:16.847Z,29.00
2023-04-16T14:51:49.407Z,33.22
2023-04-16T14:54:17.012Z,33.83
2023-04-16T14:56:44.496Z,35.87
2023-04-16T14:59:12.254Z,34.55
2023-04-16T15:01:41.164Z,32.47
2023-04-16T15:04:09.050Z,38.20
2023-04-16T15:06:36.671Z,38.50
2023-04-16T15:09:06.957Z,34.33
2023-04-16T15:11:34.514Z,36.25
2023-04-16T15:14:02.023Z,33.83
2023-04-16T15:16:29.535Z,36.88
2023-04-16T15:18:56.984Z,31.55
2023-04-16T15:21:24.537Z,36.03
2023-04-16T15:23:52.089Z,36.53
2023-04-16T15:26:20.916Z,31.13
2023-04-16T15:28:48.348Z,23.02
2023-04-16T15:31:15.884Z,30.23
2023-04-16T15:33:43.587Z,27.57
2023-04-16T15:36:11.263Z,26.98
2023-04-16T15:38:38.739Z,22.35
2023-04-16T15:41:06.258Z,25.42
2023-04-16T15:43:35.200Z,28.42
2023-04-16T15:46:02.802Z,30.07
2023-04-16T15:48:30.366Z,28.13
2023-04-16T15:50:58.466Z,27.73
2023-04-16T15:53:26.092Z,28.80
2023-04-16T15:55:53.819Z,24.67
2023-04-16T15:58:22.220Z,29.80
2023-04-16T16:00:51.382Z,28.88
2023-04-16T16:03:19.768Z,26.95
2023-04-16T16:05:48.138Z,31.75
2023-04-16T16:08:15.874Z,29.73
2023-04-16T16:10:43.504Z,33.60
2023-04-16T16:13:13.119Z,37.42
2023-04-16T16:15:41.694Z,31.30
2023-04-16T16:18:10.690Z,32.30
2023-04-16T16:20:38.755Z,36.08
2023-04-16T16:23:06.312Z,33.43
2023-04-16T16:25:35.051Z,34.65
2023-04-16T16:28:06.523Z,32.20
2023-04-16T16:30:34.350Z,29.95
2023-04-16T16:33:01.821Z,31.17
2023-04-16T16:35:30.709Z,34.13
2023-04-16T16:37:59.256Z,30.15
2023-04-16T16:40:26.819Z,27.70
2023-04-16T16:42:54.483Z,31.52
2023-04-16T16:45:22.008Z,33.22
2023-04-16T16:47:49.771Z,28.17
2023-04-16T16:50:17.462Z,28.95
2023-04-16T16:52:46.356Z,30.17
2023-04-16T16:55:17.131Z,32.85
2023-04-16T16:57:46.126Z,30.88
2023-04-16T17:00:16.065Z,34.67
2023-04-16T17:02:44.038Z,34.58
2023-04-16T17:05:12.410Z,31.92
2023-04-16T17:07:40.272Z,31.17
2023-04-16T17:10:11.187Z,33.95
2023-04-16T17:12:38.807Z,24.73
2023-04-16T17:15:07.045Z,31.83
2023-04-16T17:17:34.749Z,33.10
2023-04-16T17:20:08.771Z,26.23
2023-04-16T17:22:36.544Z,34.33
2023-04-16T17:25:04.901Z,25.60
2023-04-16T17:27:34.491Z,30.77
2023-04-16T17:30:02.417Z,33.97
2023-04-16T17:32:32.581Z,33.83
2023-04-16T17:35:01.023Z,32.20
2023-04-16T17:37:29.054Z,30.70
2023-04-16T17:39:57.127Z,32.20
2023-04-16T17:42:25.457Z,37.28
2023-04-16T17:44:54.539Z,32.92
2023-04-16T17:47:22.371Z,37.38
2023-04-16T17:49:50.070Z,36.57
2023-04-16T17:52:17.945Z,30.13
2023-04-16T17:54:45.939Z,32.28
2023-04-16T17:57:15.042Z,31.02
2023-04-16T17:59:42.901Z,31.05
2023-04-16T18:02:12.223Z,37.40
2023-04-16T18:04:40.308Z,32.38
2023-04-16T18:07:10.676Z,30.23
2023-04-16T18:09:40.665Z,34.13
2023-04-16T18:12:08.831Z,32.47
2023-04-16T18:14:38.824Z,31.10
2023-04-16T18:17:06.951Z,37.88
2023-04-16T18:19:36.683Z,33.15
2023-04-16T18:22:04.686Z,30.20
2023-04-16T18:24:33.349Z,39.00
2023-04-16T18:27:01.657Z,37.03
2023-04-16T18:29:29.534Z,33.40
2023-04-16T18:31:59.222Z,31.10
2023-04-16T18:34:29.555Z,36.17
2023-04-16T18:36:58.637Z,37.40
2023-04-16T18:39:26.381Z,35.10
2023-04-16T18:41:54.141Z,34.97
2023-04-16T18:44:21.939Z,34.20
2023-04-16T18:46:49.894Z,29.38
2023-04-16T18:49:17.920Z,33.53
2023-04-16T18:51:45.657Z,34.70
2023-04-16T18:54:14.818Z,33.78
2023-04-16T18:56:42.531Z,27.55
2023-04-16T18:59:10.556Z,34.63
2023-04-16T19:01:38.714Z,31.25
2023-04-16T19:04:06.882Z,32.80
2023-04-16T19:06:34.720Z,33.28
2023-04-16T19:09:02.577Z,35.22
2023-04-16T19:11:31.790Z,32.78
2023-04-16T19:14:02.006Z,37.28
2023-04-16T19:16:31.576Z,36.93
2023-04-16T19:18:59.484Z,33.63
2023-04-16T19:21:27.525Z,29.55
2023-04-16T19:23:57.568Z,30.17
2023-04-16T19:26:25.597Z,27.33
2023-04-16T19:28:57.262Z,29.57
2023-04-16T19:31:26.086Z,27.75
2023-04-16T19:33:53.987Z,32.00
2023-04-16T19:36:21.877Z,32.58
2023-04-16T19:38:50.340Z,30.05
2023-04-16T19:41:18.614Z,32.47
2023-04-16T19:43:47.035Z,34.60
2023-04-16T19:46:17.157Z,39.95
2023-04-16T19:48:45.821Z,33.72
2023-04-16T19:51:13.767Z,36.85
2023-04-16T19:53:43.601Z,33.30
2023-04-16T19:56:12.298Z,37.67
2023-04-16T19:58:40.293Z,35.28
2023-04-16T20:01:10.350Z,37.72
2023-04-16T20:03:39.980Z,38.60
2023-04-16T20:06:07.932Z,31.13
2023-04-16T20:08:35.866Z,39.03
2023-04-16T20:11:03.888Z,38.75
2023-04-16T20:13:44.409Z,32.58
2023-04-16T20:16:13.537Z,35.60
2023-04-16T20:18:43.335Z,34.23
2023-04-16T20:21:11.523Z,43.92
2023-04-16T20:23:39.237Z,30.40
2023-04-16T20:26:07.486Z,42.13
2023-04-16T20:28:35.231Z,40.65
2023-04-16T20:31:03.183Z,41.23
2023-04-16T20:33:31.095Z,42.42
2023-04-16T20:36:00.589Z,49.30
2023-04-16T20:38:32.422Z,39.08
2023-04-16T20:41:10.004Z,42.00
2023-04-16T20:43:40.541Z,51.73
2023-04-16T20:46:08.295Z,46.20
2023-04-16T20:48:36.088Z,50.42
2023-04-16T20:51:07.592Z,44.58
2023-04-16T20:53:35.253Z,52.08
2023-04-16T20:56:02.751Z,39.20
2023-04-16T20:58:30.863Z,56.72
2023-04-16T21:00:58.877Z,47.83
2023-04-16T21:03:26.467Z,46.97
2023-04-16T21:05:56.273Z,46.08
2023-04-16T21:08:25.295Z,45.77
2023-04-16T21:10:52.869Z,41.25
2023-04-16T21:13:20.915Z,42.80
2023-04-16T21:15:48.577Z,51.25
2023-04-16T21:18:16.936Z,58.75
2023-04-16T21:20:44.478Z,51.93
2023-04-16T21:23:12.179Z,52.42
2023-04-16T21:25:41.364Z,50.92
2023-04-16T21:28:09.090Z,55.60
2023-04-16T21:30:36.743Z,49.25
2023-04-16T21:33:04.495Z,51.37
2023-04-16T21:35:32.949Z,42.13
2023-04-16T21:38:00.401Z,46.22
2023-04-16T21:40:27.891Z,40.33
2023-04-16T21:42:56.733Z,71.20
2023-04-16T21:45:24.223Z,56.27
2023-04-16T21:47:51.739Z,51.05
2023-04-16T21:50:19.293Z,58.13
2023-04-16T21:52:47.036Z,70.00
2023-04-16T21:55:14.774Z,68.55
2023-04-16T21:57:42.326Z,46.60
2023-04-16T22:00:13.895Z,40.25
2023-04-16T22:02:42.927Z,56.97
2023-04-16T22:05:11.559Z,49.67
2023-04-16T22:07:39.207Z,66.40
2023-04-16T22:10:08.605Z,68.70
2023-04-16T22:12:37.724Z,62.35
2023-04-16T22:15:05.963Z,52.72
2023-04-16T22:17:35.799Z,56.22
2023-04-16T22:20:06.807Z,56.45
2023-04-16T22:22:34.328Z,60.03
2023-04-16T22:25:01.924Z,55.63
2023-04-16T22:27:29.558Z,74.88
2023-04-16T22:29:57.236Z,66.95
2023-04-16T22:32:25.143Z,51.25
2023-04-16T22:34:54.245Z,63.00
2023-04-16T22:37:21.774Z,58.70
2023-04-16T22:39:49.270Z,62.65
2023-04-16T22:42:16.969Z,67.70
2023-04-16T22:44:44.754Z,66.05
2023-04-16T22:47:12.333Z,56.80
2023-04-16T22:49:39.822Z,61.10
2023-04-16T22:52:08.734Z,43.65
2023-04-16T22:54:36.322Z,46.58
2023-04-16T22:57:03.919Z,31.52
2023-04-16T22:59:32.200Z,41.70
2023-04-16T23:02:00.007Z,46.90
2023-04-16T23:04:27.908Z,26.92
2023-04-16T23:06:55.789Z,32.22
2023-04-16T23:09:24.733Z,37.13
2023-04-16T23:11:52.261Z,26.13
2023-04-16T23:14:21.211Z,29.20
2023-04-16T23:16:48.802Z,29.33
2023-04-16T23:19:16.368Z,20.88
2023-04-16T23:21:44.514Z,26.92
2023-04-16T23:24:12.076Z,30.23
2023-04-16T23:26:40.885Z,30.88
2023-04-16T23:29:08.746Z,31.60
2023-04-16T23:31:36.551Z,67.70
2023-04-16T23:34:04.175Z,92.63
2023-04-16T23:36:31.956Z,244.63
2023-04-16T23:38:59.445Z,199.82
2023-04-16T23:41:26.997Z,122.32
2023-04-16T23:43:55.937Z,227.90
2023-04-16T23:46:23.739Z,154.05
2023-04-16T23:48:52.526Z,145.70
2023-04-16T23:51:20.529Z,291.40
2023-04-16T23:53:48.516Z,62.47
2023-04-16T23:56:18.600Z,434.90
2023-04-16T23:58:46.270Z,189.75
